Time,TemperatureF,DewpointF,PressureIn,WindDirection,WindDirectionDegrees,WindSpeedMPH,WindSpeedGustMPH,Humidity,HourlyPrecipIn,Conditions,Clouds,dailyrainin,SoftwareType,DateUTC
2013-04-28 00:00:00,54.2,52.8,30.04,SSE,155,1.0,0.0,95,0.05,,,0.04,VWS V14.01,2013-04-28 04:00:00,
2013-04-28 00:01:00,54.2,52.8,30.04,SSE,151,2.0,0.0,95,0.04,,,0.04,VWS V14.01,2013-04-28 04:01:00,
2013-04-28 00:06:00,54.2,52.8,30.04,SSE,153,3.0,0.0,95,0.04,,,0.04,VWS V14.01,2013-04-28 04:06:00,
2013-04-28 00:10:00,54.2,52.8,30.04,SE,143,0.0,0.0,95,0.05,,,0.05,VWS V14.01,2013-04-28 04:10:00,
2013-04-28 00:11:00,54.2,52.8,30.04,SSE,148,0.0,0.0,95,0.04,,,0.05,VWS V14.01,2013-04-28 04:11:00,
2013-04-28 00:16:00,54.2,52.8,30.04,SE,144,0.0,0.0,95,0.04,,,0.05,VWS V14.01,2013-04-28 04:16:00,
2013-04-28 00:20:00,54.2,52.8,30.04,SE,142,5.0,0.0,95,0.05,,,0.06,VWS V14.01,2013-04-28 04:20:00,
2013-04-28 00:21:00,54.2,52.8,30.04,SE,142,1.0,0.0,95,0.04,,,0.06,VWS V14.01,2013-04-28 04:21:00,
2013-04-28 00:26:00,54.2,52.8,30.04,SSE,150,1.0,0.0,95,0.06,,,0.08,VWS V14.01,2013-04-28 04:26:00,
2013-04-28 00:30:00,54.2,52.8,30.04,SSE,149,1.0,0.0,95,0.07,,,0.09,VWS V14.01,2013-04-28 04:30:00,
2013-04-28 00:31:00,54.2,52.8,30.04,SSE,148,2.0,0.0,95,0.07,,,0.10,VWS V14.01,2013-04-28 04:31:00,
2013-04-28 00:36:00,54.2,52.8,30.04,ESE,119,2.0,0.0,95,0.08,,,0.11,VWS V14.01,2013-04-28 04:36:00,
2013-04-28 00:40:00,54.2,52.8,30.04,SSE,147,4.0,0.0,95,0.09,,,0.12,VWS V14.01,2013-04-28 04:40:00,
2013-04-28 00:41:00,54.2,52.8,30.04,East,96,3.0,0.0,95,0.08,,,0.12,VWS V14.01,2013-04-28 04:41:00,
2013-04-28 00:46:00,54.2,52.8,30.02,SE,137,4.0,0.0,95,0.09,,,0.13,VWS V14.01,2013-04-28 04:46:00,
2013-04-28 00:50:00,54.2,52.8,30.02,SSE,155,3.0,0.0,95,0.10,,,0.14,VWS V14.01,2013-04-28 04:50:00,
2013-04-28 00:51:00,54.2,52.8,30.02,SE,143,1.0,0.0,95,0.10,,,0.14,VWS V14.01,2013-04-28 04:51:00,
2013-04-28 00:56:00,54.2,52.8,30.02,SSE,155,2.0,0.0,95,0.12,,,0.16,VWS V14.01,2013-04-28 04:56:00,
2013-04-28 01:00:00,54.2,52.8,30.02,SSE,165,3.0,0.0,95,0.13,,,0.17,VWS V14.01,2013-04-28 05:00:00,
2013-04-28 01:01:00,54.2,52.8,30.02,SSE,167,3.0,0.0,95,0.14,,,0.18,VWS V14.01,2013-04-28 05:01:00,
2013-04-28 01:06:00,54.2,52.8,30.02,South,178,2.0,0.0,95,0.16,,,0.20,VWS V14.01,2013-04-28 05:06:00,
2013-04-28 01:10:00,54.2,52.8,30.02,SSE,153,2.0,0.0,95,0.17,,,0.21,VWS V14.01,2013-04-28 05:10:00,
2013-04-28 01:11:00,54.2,52.8,30.02,SE,138,1.0,0.0,95,0.17,,,0.22,VWS V14.01,2013-04-28 05:11:00,
2013-04-28 01:16:00,54.2,52.8,30.01,SE,138,3.0,0.0,95,0.18,,,0.23,VWS V14.01,2013-04-28 05:16:00,
2013-04-28 01:20:00,54.2,52.8,30.01,East,100,0.0,0.0,95,0.19,,,0.24,VWS V14.01,2013-04-28 05:20:00,
2013-04-28 01:21:00,54.2,52.8,30.01,SE,144,3.0,0.0,95,0.19,,,0.25,VWS V14.01,2013-04-28 05:21:00,
2013-04-28 01:26:00,54.2,52.8,30.01,SSE,153,3.0,0.0,95,0.20,,,0.26,VWS V14.01,2013-04-28 05:26:00,
2013-04-28 01:30:00,54.2,52.8,29.98,East,80,5.0,0.0,95,0.20,,,0.26,VWS V14.01,2013-04-28 05:30:00,
2013-04-28 01:31:00,54.2,52.8,29.98,ESE,104,2.0,0.0,95,0.17,,,0.26,VWS V14.01,2013-04-28 05:31:00,
2013-04-28 01:37:00,54.2,52.8,29.98,ESE,109,3.0,0.0,95,0.18,,,0.27,VWS V14.01,2013-04-28 05:37:00,
2013-04-28 01:40:00,54.2,52.8,29.98,SE,128,3.0,0.0,95,0.18,,,0.27,VWS V14.01,2013-04-28 05:40:00,
2013-04-28 01:41:00,54.2,52.8,29.98,SE,138,2.0,0.0,95,0.15,,,0.27,VWS V14.01,2013-04-28 05:41:00,
2013-04-28 01:47:00,54.2,52.8,29.97,East,94,0.0,0.0,95,0.15,,,0.27,VWS V14.01,2013-04-28 05:47:00,
2013-04-28 01:50:00,54.2,52.8,29.97,SE,144,2.0,0.0,95,0.15,,,0.27,VWS V14.01,2013-04-28 05:50:00,
2013-04-28 01:52:00,54.2,52.8,29.97,SSE,149,2.0,0.0,95,0.14,,,0.28,VWS V14.01,2013-04-28 05:52:00,
2013-04-28 01:57:00,54.2,52.8,29.97,ESE,107,3.0,0.0,95,0.14,,,0.28,VWS V14.01,2013-04-28 05:57:00,
2013-04-28 02:00:00,54.2,52.8,29.98,SE,131,1.0,0.0,95,0.14,,,0.28,VWS V14.01,2013-04-28 06:00:00,
2013-04-28 02:02:00,54.2,52.8,29.98,East,91,2.0,0.0,95,0.11,,,0.28,VWS V14.01,2013-04-28 06:02:00,
2013-04-28 02:07:00,54.2,52.8,29.98,SSE,148,2.0,0.0,95,0.11,,,0.28,VWS V14.01,2013-04-28 06:07:00,
2013-04-28 02:10:00,54.2,52.8,29.98,SSE,157,2.0,0.0,95,0.11,,,0.28,VWS V14.01,2013-04-28 06:10:00,
2013-04-28 02:12:00,54.2,52.8,29.98,SE,136,3.0,0.0,95,0.07,,,0.28,VWS V14.01,2013-04-28 06:12:00,
2013-04-28 02:17:00,54.1,52.7,29.97,SSE,161,1.0,0.0,95,0.07,,,0.28,VWS V14.01,2013-04-28 06:17:00,
2013-04-28 02:20:00,54.1,52.7,29.97,SE,132,3.0,0.0,95,0.07,,,0.28,VWS V14.01,2013-04-28 06:20:00,
2013-04-28 02:22:00,54.1,52.7,29.97,ESE,111,5.0,0.0,95,0.04,,,0.28,VWS V14.01,2013-04-28 06:22:00,
2013-04-28 02:27:00,54.1,52.7,29.97,ESE,115,4.0,0.0,95,0.04,,,0.28,VWS V14.01,2013-04-28 06:27:00,
2013-04-28 02:30:00,54.1,52.7,29.94,ESE,119,5.0,0.0,95,0.05,,,0.29,VWS V14.01,2013-04-28 06:30:00,
2013-04-28 02:32:00,54.1,52.7,29.94,SSE,157,3.0,0.0,95,0.03,,,0.29,VWS V14.01,2013-04-28 06:32:00,
2013-04-28 02:37:00,54.1,52.7,29.94,ESE,110,2.0,0.0,95,0.03,,,0.29,VWS V14.01,2013-04-28 06:37:00,
2013-04-28 02:40:00,54.1,52.7,29.94,SSE,147,5.0,0.0,95,0.03,,,0.29,VWS V14.01,2013-04-28 06:40:00,
2013-04-28 02:42:00,54.1,52.7,29.94,SSE,154,3.0,0.0,95,0.02,,,0.29,VWS V14.01,2013-04-28 06:42:00,
2013-04-28 02:47:00,54.1,52.7,29.95,SSE,161,1.0,0.0,95,0.02,,,0.29,VWS V14.01,2013-04-28 06:47:00,
2013-04-28 02:52:00,54.1,52.7,29.95,SE,131,2.0,0.0,95,0.02,,,0.29,VWS V14.01,2013-04-28 06:52:00,
2013-04-28 03:00:00,54.1,52.7,29.96,SE,141,0.0,0.0,95,0.02,,,0.29,VWS V14.01,2013-04-28 07:00:00,
2013-04-28 03:02:00,54.1,52.7,29.96,SE,145,4.0,0.0,95,0.01,,,0.29,VWS V14.01,2013-04-28 07:02:00,
2013-04-28 03:07:00,54.1,52.7,29.96,SSE,157,3.0,0.0,95,0.01,,,0.29,VWS V14.01,2013-04-28 07:07:00,
2013-04-28 03:10:00,54.1,52.7,29.96,SSE,148,0.0,0.0,95,0.01,,,0.29,VWS V14.01,2013-04-28 07:10:00,
2013-04-28 03:12:00,54.1,52.7,29.96,SE,146,3.0,0.0,95,0.01,,,0.29,VWS V14.01,2013-04-28 07:12:00,
2013-04-28 03:17:00,54.1,52.7,29.96,SE,146,0.0,0.0,95,0.01,,,0.29,VWS V14.01,2013-04-28 07:17:00,
2013-04-28 03:20:00,54.1,52.7,29.96,SE,146,0.0,0.0,95,0.01,,,0.29,VWS V14.01,2013-04-28 07:20:00,
2013-04-28 03:22:00,54.1,52.7,29.96,SE,146,0.0,0.0,95,0.01,,,0.29,VWS V14.01,2013-04-28 07:22:00,
2013-04-28 03:27:00,54.1,52.7,29.96,SE,146,0.0,0.0,95,0.01,,,0.29,VWS V14.01,2013-04-28 07:27:00,
2013-04-28 03:30:00,54.1,52.7,29.96,SE,146,1.0,0.0,95,0.01,,,0.29,VWS V14.01,2013-04-28 07:30:00,
2013-04-28 03:32:00,54.1,52.7,29.96,SE,146,0.0,0.0,95,0.00,,,0.29,VWS V14.01,2013-04-28 07:32:00,
2013-04-28 03:37:00,54.1,52.7,29.96,SE,146,0.0,0.0,95,0.00,,,0.29,VWS V14.01,2013-04-28 07:37:00,
2013-04-28 03:40:00,54.1,52.4,29.96,SE,146,0.0,0.0,94,0.00,,,0.29,VWS V14.01,2013-04-28 07:40:00,
2013-04-28 03:42:00,53.9,52.5,29.96,SE,146,0.0,0.0,95,0.00,,,0.29,VWS V14.01,2013-04-28 07:42:00,
2013-04-28 03:47:00,53.9,52.5,29.96,SE,146,0.0,0.0,95,0.00,,,0.29,VWS V14.01,2013-04-28 07:47:00,
2013-04-28 03:50:00,53.9,52.2,29.96,SE,146,0.0,0.0,94,0.00,,,0.29,VWS V14.01,2013-04-28 07:50:00,
2013-04-28 03:52:00,53.9,52.2,29.96,SE,146,0.0,0.0,94,0.00,,,0.29,VWS V14.01,2013-04-28 07:52:00,
2013-04-28 03:56:00,54.1,52.7,29.95,SSE,153,3.0,0.0,95,0.02,,,0.29,VWS V14.01,2013-04-28 07:56:00,
2013-04-28 03:57:00,53.9,52.2,29.96,SE,146,0.0,0.0,94,0.00,,,0.29,VWS V14.01,2013-04-28 07:57:00,
2013-04-28 04:00:00,53.8,52.1,29.96,SE,146,0.0,0.0,94,0.00,,,0.29,VWS V14.01,2013-04-28 08:00:00,
2013-04-28 04:02:00,53.8,52.1,29.96,SE,146,0.0,0.0,94,0.00,,,0.29,VWS V14.01,2013-04-28 08:02:00,
2013-04-28 04:03:00,54.1,52.7,29.95,SE,130,0.0,0.0,95,0.02,,,0.29,VWS V14.01,2013-04-28 08:03:00,
2013-04-28 04:07:00,53.8,52.1,29.96,SE,146,0.0,0.0,94,0.00,,,0.29,VWS V14.01,2013-04-28 08:07:00,
2013-04-28 04:12:00,53.8,52.1,29.96,SE,146,0.0,0.0,94,0.00,,,0.29,VWS V14.01,2013-04-28 08:12:00,
2013-04-28 04:17:00,53.6,52.2,29.95,SE,146,0.0,0.0,95,0.00,,,0.29,VWS V14.01,2013-04-28 08:17:00,
2013-04-28 04:20:00,53.6,52.2,29.95,SE,142,0.0,0.0,95,0.00,,,0.29,VWS V14.01,2013-04-28 08:20:00,
2013-04-28 04:27:00,53.6,52.2,29.95,South,169,4.0,0.0,95,0.00,,,0.29,VWS V14.01,2013-04-28 08:27:00,
2013-04-28 04:30:00,53.8,52.4,29.94,SSE,152,0.0,0.0,95,0.00,,,0.29,VWS V14.01,2013-04-28 08:30:00,
2013-04-28 04:32:00,53.8,52.4,29.94,South,178,0.0,0.0,95,0.00,,,0.29,VWS V14.01,2013-04-28 08:32:00,
2013-04-28 04:37:00,53.9,52.5,29.94,SSE,163,2.0,0.0,95,0.00,,,0.29,VWS V14.01,2013-04-28 08:37:00,
2013-04-28 04:40:00,54.1,52.7,29.94,SSE,148,0.0,0.0,95,0.00,,,0.29,VWS V14.01,2013-04-28 08:40:00,
2013-04-28 04:42:00,54.1,52.7,29.94,SSE,162,3.0,0.0,95,0.00,,,0.29,VWS V14.01,2013-04-28 08:42:00,
2013-04-28 04:50:00,54.1,52.4,29.95,SE,146,3.0,0.0,94,0.00,,,0.29,VWS V14.01,2013-04-28 08:50:00,
2013-04-28 04:52:00,54.2,52.5,29.95,SSE,150,4.0,0.0,94,0.00,,,0.29,VWS V14.01,2013-04-28 08:52:00,
2013-04-28 04:57:00,54.2,52.5,29.95,SE,136,0.0,0.0,94,0.00,,,0.29,VWS V14.01,2013-04-28 08:57:00,
2013-04-28 05:02:00,54.2,52.5,29.93,SE,134,1.0,0.0,94,0.00,,,0.29,VWS V14.01,2013-04-28 09:02:00,
2013-04-28 05:07:00,54.2,52.5,29.93,SE,138,0.0,0.0,94,0.00,,,0.29,VWS V14.01,2013-04-28 09:07:00,
2013-04-28 05:10:00,54.2,52.5,29.93,SE,138,0.0,0.0,94,0.00,,,0.29,VWS V14.01,2013-04-28 09:10:00,
2013-04-28 05:12:00,54.2,52.5,29.93,SE,143,0.0,0.0,94,0.00,,,0.29,VWS V14.01,2013-04-28 09:12:00,
2013-04-28 05:16:00,53.8,52.1,29.96,SE,146,0.0,0.0,94,0.00,,,0.29,VWS V14.01,2013-04-28 09:16:00,
2013-04-28 05:17:00,54.2,52.5,29.92,SE,146,2.0,0.0,94,0.00,,,0.29,VWS V14.01,2013-04-28 09:17:00,
2013-04-28 05:28:00,53.6,52.2,29.95,SE,136,0.0,0.0,95,0.00,,,0.29,VWS V14.01,2013-04-28 09:28:00,
2013-04-28 05:30:00,54.2,52.2,29.92,SSE,159,0.0,0.0,93,0.00,,,0.29,VWS V14.01,2013-04-28 09:30:00,
2013-04-28 05:37:00,54.2,52.2,29.92,SSE,159,1.0,0.0,93,0.00,,,0.29,VWS V14.01,2013-04-28 09:37:00,
2013-04-28 05:53:00,54.1,52.7,29.95,SSE,162,0.0,0.0,95,0.00,,,0.29,VWS V14.01,2013-04-28 09:53:00,
2013-04-28 05:57:00,54.2,52.2,29.93,SSE,151,0.0,0.0,93,0.00,,,0.29,VWS V14.01,2013-04-28 09:57:00,
2013-04-28 06:06:00,54.2,52.5,29.93,SSE,153,0.0,0.0,94,0.00,,,0.29,VWS V14.01,2013-04-28 10:06:00,
2013-04-28 06:10:00,54.4,52.1,29.93,SSE,151,0.0,0.0,92,0.00,,,0.29,VWS V14.01,2013-04-28 10:10:00,
2013-04-28 06:12:00,54.4,52.1,29.93,SSE,151,0.0,0.0,92,0.00,,,0.29,VWS V14.01,2013-04-28 10:12:00,
2013-04-28 06:17:00,54.2,51.9,29.93,SSE,151,0.0,0.0,92,0.00,,,0.29,VWS V14.01,2013-04-28 10:17:00,
2013-04-28 06:20:00,54.2,51.9,29.93,SSE,151,0.0,0.0,92,0.00,,,0.29,VWS V14.01,2013-04-28 10:20:00,
2013-04-28 06:22:00,54.2,51.9,29.93,SSE,151,0.0,0.0,92,0.00,,,0.29,VWS V14.01,2013-04-28 10:22:00,
2013-04-28 06:26:00,54.2,52.5,29.92,SE,146,0.0,0.0,94,0.00,,,0.29,VWS V14.01,2013-04-28 10:26:00,
2013-04-28 06:27:00,54.2,51.9,29.93,SSE,151,0.0,0.0,92,0.00,,,0.29,VWS V14.01,2013-04-28 10:27:00,
2013-04-28 06:30:00,54.2,51.9,29.94,SSE,151,0.0,0.0,92,0.00,,,0.29,VWS V14.01,2013-04-28 10:30:00,
2013-04-28 06:32:00,54.2,51.9,29.94,SSE,151,0.0,0.0,92,0.00,,,0.29,VWS V14.01,2013-04-28 10:32:00,
2013-04-28 06:33:00,54.2,52.5,29.92,SSE,159,0.0,0.0,94,0.00,,,0.29,VWS V14.01,2013-04-28 10:33:00,
2013-04-28 06:38:00,54.2,52.2,29.92,SSE,159,2.0,0.0,93,0.00,,,0.29,VWS V14.01,2013-04-28 10:38:00,
2013-04-28 06:40:00,54.4,52.1,29.94,SSE,151,0.0,0.0,92,0.00,,,0.29,VWS V14.01,2013-04-28 10:40:00,
2013-04-28 06:46:00,54.2,52.2,29.92,SSE,159,0.0,0.0,93,0.00,,,0.29,VWS V14.01,2013-04-28 10:46:00,
2013-04-28 06:52:00,54.4,51.8,29.94,SSE,151,0.0,0.0,91,0.00,,,0.29,VWS V14.01,2013-04-28 10:52:00,
2013-04-28 06:53:00,54.2,52.2,29.93,SSE,151,0.0,0.0,93,0.00,,,0.29,VWS V14.01,2013-04-28 10:53:00,
2013-04-28 06:58:00,54.2,52.2,29.93,SSE,151,0.0,0.0,93,0.00,,,0.29,VWS V14.01,2013-04-28 10:58:00,
2013-04-28 07:06:00,54.2,51.9,29.93,SSE,151,0.0,0.0,92,0.00,,,0.29,VWS V14.01,2013-04-28 11:06:00,
2013-04-28 07:10:00,55.6,52.4,29.94,South,172,0.0,0.0,89,0.00,,,0.29,VWS V14.01,2013-04-28 11:10:00,
2013-04-28 07:13:00,54.4,52.1,29.93,SSE,151,0.0,0.0,92,0.00,,,0.29,VWS V14.01,2013-04-28 11:13:00,
2013-04-28 07:22:00,56.3,52.2,29.94,SSE,154,3.0,0.0,86,0.00,,,0.29,VWS V14.01,2013-04-28 11:22:00,
2013-04-28 07:27:00,56.3,52.2,29.94,South,169,3.0,0.0,86,0.00,,,0.29,VWS V14.01,2013-04-28 11:27:00,
2013-04-28 07:32:00,56.5,52.0,29.93,SE,141,3.0,0.0,85,0.00,,,0.29,VWS V14.01,2013-04-28 11:32:00,
2013-04-28 07:37:00,56.6,52.2,29.93,SSE,162,1.0,0.0,85,0.00,,,0.29,VWS V14.01,2013-04-28 11:37:00,
2013-04-28 07:40:00,56.7,51.9,29.93,SSE,161,0.0,0.0,84,0.00,,,0.29,VWS V14.01,2013-04-28 11:40:00,
2013-04-28 07:42:00,56.7,51.9,29.93,SSW,211,0.0,0.0,84,0.00,,,0.29,VWS V14.01,2013-04-28 11:42:00,
2013-04-28 07:43:00,54.4,52.1,29.94,SSE,151,0.0,0.0,92,0.00,,,0.29,VWS V14.01,2013-04-28 11:43:00,
2013-04-28 07:47:00,56.9,52.1,29.94,SW,234,0.0,0.0,84,0.00,,,0.29,VWS V14.01,2013-04-28 11:47:00,
2013-04-28 07:48:00,54.4,52.1,29.94,SSE,151,0.0,0.0,92,0.00,,,0.29,VWS V14.01,2013-04-28 11:48:00,
2013-04-28 07:50:00,57.0,52.2,29.94,SSE,163,3.0,0.0,84,0.00,,,0.29,VWS V14.01,2013-04-28 11:50:00,
2013-04-28 07:52:00,57.0,52.2,29.94,SSE,155,2.0,0.0,84,0.00,,,0.29,VWS V14.01,2013-04-28 11:52:00,
2013-04-28 07:53:00,54.4,51.8,29.94,SSE,151,0.0,0.0,91,0.00,,,0.29,VWS V14.01,2013-04-28 11:53:00,
2013-04-28 07:58:00,57.2,52.4,29.94,SE,141,0.0,0.0,84,0.00,,,0.29,VWS V14.01,2013-04-28 11:58:00,
2013-04-28 08:00:00,57.2,52.4,29.94,South,180,2.0,0.0,84,0.00,,,0.29,VWS V14.01,2013-04-28 12:00:00,
2013-04-28 08:02:00,57.3,52.5,29.94,SW,219,3.0,0.0,84,0.00,,,0.29,VWS V14.01,2013-04-28 12:02:00,
2013-04-28 08:03:00,54.5,51.9,29.94,SSE,167,0.0,0.0,91,0.00,,,0.29,VWS V14.01,2013-04-28 12:03:00,
2013-04-28 08:08:00,54.8,51.9,29.94,South,180,0.0,0.0,90,0.00,,,0.29,VWS V14.01,2013-04-28 12:08:00,
2013-04-28 08:10:00,57.6,52.8,29.94,South,185,0.0,0.0,84,0.00,,,0.29,VWS V14.01,2013-04-28 12:10:00,
2013-04-28 08:13:00,55.3,52.4,29.94,South,172,1.0,0.0,90,0.00,,,0.29,VWS V14.01,2013-04-28 12:13:00,
2013-04-28 08:18:00,55.9,52.7,29.94,SSE,158,1.0,0.0,89,0.00,,,0.29,VWS V14.01,2013-04-28 12:18:00,
2013-04-28 08:20:00,58.0,52.9,29.95,SSE,164,1.0,0.0,83,0.00,,,0.29,VWS V14.01,2013-04-28 12:20:00,
2013-04-28 08:23:00,56.3,52.5,29.94,SSE,159,2.0,0.0,87,0.00,,,0.29,VWS V14.01,2013-04-28 12:23:00,
2013-04-28 08:28:00,58.1,53.0,29.95,South,190,1.0,0.0,83,0.00,,,0.29,VWS V14.01,2013-04-28 12:28:00,
2013-04-28 08:30:00,58.3,53.2,29.94,SSE,155,2.0,0.0,83,0.00,,,0.29,VWS V14.01,2013-04-28 12:30:00,
2013-04-28 08:33:00,58.4,53.3,29.94,SSW,192,1.0,0.0,83,0.00,,,0.29,VWS V14.01,2013-04-28 12:33:00,
2013-04-28 08:36:00,56.3,51.9,29.93,South,180,3.0,0.0,85,0.00,,,0.29,VWS V14.01,2013-04-28 12:36:00,
2013-04-28 08:38:00,58.6,53.1,29.94,South,185,0.0,0.0,82,0.00,,,0.29,VWS V14.01,2013-04-28 12:38:00,
2013-04-28 08:40:00,58.6,53.1,29.94,South,188,1.0,0.0,82,0.00,,,0.29,VWS V14.01,2013-04-28 12:40:00,
2013-04-28 08:43:00,58.7,53.2,29.94,SSE,155,3.0,0.0,82,0.00,,,0.29,VWS V14.01,2013-04-28 12:43:00,
2013-04-28 08:48:00,58.9,53.1,29.95,SSE,157,0.0,0.0,81,0.00,,,0.29,VWS V14.01,2013-04-28 12:48:00,
2013-04-28 08:50:00,58.7,52.9,29.95,SE,144,2.0,0.0,81,0.00,,,0.29,VWS V14.01,2013-04-28 12:50:00,
2013-04-28 08:53:00,58.7,52.9,29.95,South,177,2.0,0.0,81,0.00,,,0.29,VWS V14.01,2013-04-28 12:53:00,
2013-04-28 08:58:00,58.9,53.1,29.95,SSE,148,3.0,0.0,81,0.00,,,0.29,VWS V14.01,2013-04-28 12:58:00,
2013-04-28 09:00:00,58.9,53.1,29.95,SSE,155,0.0,0.0,81,0.00,,,0.29,VWS V14.01,2013-04-28 13:00:00,
2013-04-28 09:03:00,58.9,52.8,29.95,SSE,155,5.0,0.0,80,0.00,,,0.29,VWS V14.01,2013-04-28 13:03:00,
2013-04-28 09:08:00,58.9,52.8,29.95,SSE,154,5.0,0.0,80,0.00,,,0.29,VWS V14.01,2013-04-28 13:08:00,
2013-04-28 09:10:00,58.9,52.8,29.95,SSE,165,0.0,0.0,80,0.00,,,0.29,VWS V14.01,2013-04-28 13:10:00,
2013-04-28 09:13:00,58.9,52.8,29.95,South,173,0.0,0.0,80,0.00,,,0.29,VWS V14.01,2013-04-28 13:13:00,
2013-04-28 09:18:00,58.7,53.2,29.97,SSE,159,3.0,0.0,82,0.01,,,0.30,VWS V14.01,2013-04-28 13:18:00,
2013-04-28 09:20:00,58.4,53.3,29.97,South,181,3.0,0.0,83,0.01,,,0.30,VWS V14.01,2013-04-28 13:20:00,
2013-04-28 09:23:00,57.8,53.3,29.97,SSE,167,3.0,0.0,85,0.01,,,0.30,VWS V14.01,2013-04-28 13:23:00,
2013-04-28 09:28:00,57.3,53.5,29.97,SSE,168,0.0,0.0,87,0.01,,,0.30,VWS V14.01,2013-04-28 13:28:00,
2013-04-28 09:30:00,57.2,53.7,29.95,SSE,167,3.0,0.0,88,0.01,,,0.30,VWS V14.01,2013-04-28 13:30:00,
2013-04-28 09:33:00,57.0,53.5,29.95,SSE,159,5.0,0.0,88,0.01,,,0.30,VWS V14.01,2013-04-28 13:33:00,
2013-04-28 09:38:00,57.0,53.8,29.95,SSW,196,3.0,0.0,89,0.01,,,0.30,VWS V14.01,2013-04-28 13:38:00,
2013-04-28 09:40:00,57.0,53.8,29.95,South,176,3.0,0.0,89,0.01,,,0.30,VWS V14.01,2013-04-28 13:40:00,
2013-04-28 09:43:00,57.3,54.1,29.95,SSE,159,2.0,0.0,89,0.01,,,0.30,VWS V14.01,2013-04-28 13:43:00,
2013-04-28 09:48:00,57.8,54.6,29.94,SSE,148,1.0,0.0,89,0.01,,,0.30,VWS V14.01,2013-04-28 13:48:00,
2013-04-28 09:50:00,58.0,54.8,29.94,SSE,160,4.0,0.0,89,0.01,,,0.30,VWS V14.01,2013-04-28 13:50:00,
2013-04-28 09:53:00,58.1,54.6,29.94,SSE,157,0.0,0.0,88,0.01,,,0.30,VWS V14.01,2013-04-28 13:53:00,
2013-04-28 09:58:00,58.6,54.8,29.94,SSW,197,0.0,0.0,87,0.01,,,0.30,VWS V14.01,2013-04-28 13:58:00,
2013-04-28 10:00:00,58.7,54.8,29.95,SSW,202,2.0,0.0,87,0.01,,,0.30,VWS V14.01,2013-04-28 14:00:00,
2013-04-28 10:03:00,59.0,54.8,29.95,SSE,164,1.0,0.0,86,0.01,,,0.30,VWS V14.01,2013-04-28 14:03:00,
2013-04-28 10:08:00,59.6,54.4,29.95,SSE,148,5.0,0.0,83,0.01,,,0.30,VWS V14.01,2013-04-28 14:08:00,
2013-04-28 10:10:00,59.6,54.4,29.95,SSE,148,0.0,0.0,83,0.01,,,0.30,VWS V14.01,2013-04-28 14:10:00,
2013-04-28 10:13:00,59.9,54.4,29.95,SW,225,1.0,0.0,82,0.01,,,0.30,VWS V14.01,2013-04-28 14:13:00,
2013-04-28 10:18:00,60.5,54.7,29.95,SSE,161,0.0,0.0,81,0.01,,,0.30,VWS V14.01,2013-04-28 14:18:00,
2013-04-28 10:20:00,60.9,55.0,29.95,South,188,6.0,0.0,81,0.01,,,0.30,VWS V14.01,2013-04-28 14:20:00,
2013-04-28 10:23:00,61.3,54.4,29.95,SSE,159,6.0,0.0,78,0.00,,,0.30,VWS V14.01,2013-04-28 14:23:00,
2013-04-28 10:28:00,61.5,54.6,29.95,South,169,3.0,0.0,78,0.00,,,0.30,VWS V14.01,2013-04-28 14:28:00,
2013-04-28 10:30:00,61.6,54.3,29.95,SSW,194,7.0,0.0,77,0.00,,,0.30,VWS V14.01,2013-04-28 14:30:00,
2013-04-28 10:33:00,61.6,54.0,29.95,SW,219,5.0,0.0,76,0.00,,,0.30,VWS V14.01,2013-04-28 14:33:00,
2013-04-28 10:38:00,61.6,54.3,29.95,South,180,4.0,0.0,77,0.00,,,0.30,VWS V14.01,2013-04-28 14:38:00,
2013-04-28 10:40:00,61.6,54.3,29.95,SSE,165,6.0,0.0,77,0.00,,,0.30,VWS V14.01,2013-04-28 14:40:00,
2013-04-28 10:43:00,61.6,54.3,29.95,SSW,194,5.0,0.0,77,0.00,,,0.30,VWS V14.01,2013-04-28 14:43:00,
2013-04-28 10:48:00,62.0,54.4,29.94,South,173,4.0,0.0,76,0.00,,,0.30,VWS V14.01,2013-04-28 14:48:00,
2013-04-28 10:50:00,62.3,54.3,29.94,SW,219,4.0,0.0,75,0.00,,,0.30,VWS V14.01,2013-04-28 14:50:00,
2013-04-28 10:53:00,62.9,55.2,29.94,SSW,195,0.0,0.0,76,0.00,,,0.30,VWS V14.01,2013-04-28 14:53:00,
2013-04-28 10:58:00,63.7,54.9,29.94,South,185,0.0,0.0,73,0.00,,,0.30,VWS V14.01,2013-04-28 14:58:00,
2013-04-28 11:00:00,63.9,55.5,29.94,SSE,160,0.0,0.0,74,0.00,,,0.30,VWS V14.01,2013-04-28 15:00:00,
2013-04-28 11:03:00,64.3,55.5,29.94,SSW,202,7.0,0.0,73,0.00,,,0.30,VWS V14.01,2013-04-28 15:03:00,
2013-04-28 11:08:00,64.2,54.6,29.94,South,173,2.0,0.0,71,0.00,,,0.30,VWS V14.01,2013-04-28 15:08:00,
2013-04-28 11:10:00,64.2,55.0,29.94,SSW,209,3.0,0.0,72,0.00,,,0.30,VWS V14.01,2013-04-28 15:10:00,
2013-04-28 11:13:00,64.3,55.1,29.94,SSW,208,10.0,0.0,72,0.00,,,0.30,VWS V14.01,2013-04-28 15:13:00,
2013-04-28 11:18:00,64.3,55.1,29.94,South,182,2.0,0.0,72,0.00,,,0.30,VWS V14.01,2013-04-28 15:18:00,
2013-04-28 11:20:00,64.3,55.1,29.94,South,170,3.0,0.0,72,0.00,,,0.30,VWS V14.01,2013-04-28 15:20:00,
2013-04-28 11:23:00,64.2,54.6,29.94,South,178,3.0,0.0,71,0.00,,,0.30,VWS V14.01,2013-04-28 15:23:00,
2013-04-28 11:28:00,64.2,55.0,29.94,South,191,4.0,0.0,72,0.00,,,0.30,VWS V14.01,2013-04-28 15:28:00,
2013-04-28 11:30:00,64.0,54.4,29.94,SSW,207,3.0,0.0,71,0.00,,,0.30,VWS V14.01,2013-04-28 15:30:00,
2013-04-28 11:33:00,64.0,54.8,29.94,South,188,7.0,0.0,72,0.00,,,0.30,VWS V14.01,2013-04-28 15:33:00,
2013-04-28 11:38:00,63.9,55.1,29.94,SE,145,3.0,0.0,73,0.00,,,0.30,VWS V14.01,2013-04-28 15:38:00,
2013-04-28 11:40:00,63.9,55.1,29.94,SSW,207,4.0,0.0,73,0.00,,,0.30,VWS V14.01,2013-04-28 15:40:00,
2013-04-28 11:43:00,63.9,54.7,29.94,SSW,211,3.0,0.0,72,0.00,,,0.30,VWS V14.01,2013-04-28 15:43:00,
2013-04-28 11:48:00,63.5,54.7,29.93,SSW,210,2.0,0.0,73,0.00,,,0.30,VWS V14.01,2013-04-28 15:48:00,
2013-04-28 11:50:00,63.5,54.7,29.93,SSW,210,3.0,0.0,73,0.00,,,0.30,VWS V14.01,2013-04-28 15:50:00,
2013-04-28 11:53:00,63.7,55.3,29.93,SSW,210,4.0,0.0,74,0.00,,,0.30,VWS V14.01,2013-04-28 15:53:00,
2013-04-28 11:58:00,63.7,55.3,29.93,SW,218,2.0,0.0,74,0.00,,,0.30,VWS V14.01,2013-04-28 15:58:00,
2013-04-28 12:00:00,63.9,55.5,29.92,SW,217,2.0,0.0,74,0.00,,,0.30,VWS V14.01,2013-04-28 16:00:00,
2013-04-28 12:03:00,64.2,55.8,29.92,SSW,210,5.0,0.0,74,0.00,,,0.30,VWS V14.01,2013-04-28 16:03:00,
2013-04-28 12:08:00,64.5,55.7,29.92,SSE,161,1.0,0.0,73,0.00,,,0.30,VWS V14.01,2013-04-28 16:08:00,
2013-04-28 12:10:00,64.7,55.9,29.92,SW,224,3.0,0.0,73,0.00,,,0.30,VWS V14.01,2013-04-28 16:10:00,
2013-04-28 12:13:00,64.7,55.5,29.92,SSW,208,5.0,0.0,72,0.00,,,0.30,VWS V14.01,2013-04-28 16:13:00,
2013-04-28 12:18:00,65.0,55.8,29.92,South,173,5.0,0.0,72,0.00,,,0.30,VWS V14.01,2013-04-28 16:18:00,
2013-04-28 12:20:00,65.0,55.4,29.92,SW,217,4.0,0.0,71,0.00,,,0.30,VWS V14.01,2013-04-28 16:20:00,
2013-04-28 12:23:00,65.2,55.6,29.92,SSW,192,5.0,0.0,71,0.00,,,0.30,VWS V14.01,2013-04-28 16:23:00,
2013-04-28 12:28:00,66.1,56.0,29.92,SSW,192,4.0,0.0,70,0.00,,,0.30,VWS V14.01,2013-04-28 16:28:00,
2013-04-28 12:30:00,66.1,55.7,29.91,SW,217,5.0,0.0,69,0.00,,,0.30,VWS V14.01,2013-04-28 16:30:00,
2013-04-28 12:33:00,66.3,56.2,29.91,SSE,165,6.0,0.0,70,0.00,,,0.30,VWS V14.01,2013-04-28 16:33:00,
2013-04-28 12:38:00,65.6,55.6,29.91,South,182,4.0,0.0,70,0.00,,,0.30,VWS V14.01,2013-04-28 16:38:00,
2013-04-28 12:40:00,65.5,55.5,29.91,SSW,192,3.0,0.0,70,0.00,,,0.30,VWS V14.01,2013-04-28 16:40:00,
2013-04-28 12:43:00,65.3,55.7,29.91,SW,219,6.0,0.0,71,0.00,,,0.30,VWS V14.01,2013-04-28 16:43:00,
2013-04-28 12:48:00,65.2,55.6,29.91,SSW,192,1.0,0.0,71,0.00,,,0.30,VWS V14.01,2013-04-28 16:48:00,
2013-04-28 12:50:00,65.2,55.2,29.91,SSE,167,3.0,0.0,70,0.00,,,0.30,VWS V14.01,2013-04-28 16:50:00,
2013-04-28 12:53:00,65.3,55.3,29.91,SSE,159,4.0,0.0,70,0.00,,,0.30,VWS V14.01,2013-04-28 16:53:00,
2013-04-28 13:00:00,65.5,55.9,29.91,South,177,3.0,0.0,71,0.00,,,0.30,VWS V14.01,2013-04-28 17:00:00,
2013-04-28 13:08:00,65.3,55.3,29.91,SSW,192,3.0,0.0,70,0.00,,,0.30,VWS V14.01,2013-04-28 17:08:00,
2013-04-28 13:10:00,65.2,55.2,29.91,SW,216,7.0,0.0,70,0.00,,,0.30,VWS V14.01,2013-04-28 17:10:00,
2013-04-28 13:13:00,65.3,55.3,29.91,SSW,200,1.0,0.0,70,0.00,,,0.30,VWS V14.01,2013-04-28 17:13:00,
2013-04-28 13:18:00,65.6,55.2,29.91,SSW,207,5.0,0.0,69,0.00,,,0.30,VWS V14.01,2013-04-28 17:18:00,
2013-04-28 13:23:00,65.6,54.8,29.91,South,188,3.0,0.0,68,0.00,,,0.30,VWS V14.01,2013-04-28 17:23:00,
2013-04-28 13:28:00,65.8,55.0,29.91,South,180,6.0,0.0,68,0.00,,,0.30,VWS V14.01,2013-04-28 17:28:00,
2013-04-28 13:33:00,66.1,54.8,29.90,SW,215,7.0,0.0,67,0.00,,,0.30,VWS V14.01,2013-04-28 17:33:00,
2013-04-28 13:38:00,66.1,54.8,29.90,SSE,165,3.0,0.0,67,0.00,,,0.30,VWS V14.01,2013-04-28 17:38:00,
2013-04-28 13:40:00,66.1,54.8,29.90,South,184,4.0,0.0,67,0.00,,,0.30,VWS V14.01,2013-04-28 17:40:00,
2013-04-28 13:43:00,66.0,55.2,29.90,South,186,0.0,0.0,68,0.00,,,0.30,VWS V14.01,2013-04-28 17:43:00,
2013-04-28 13:48:00,66.1,55.2,29.90,SW,218,3.0,0.0,68,0.00,,,0.30,VWS V14.01,2013-04-28 17:48:00,
2013-04-28 13:50:00,66.1,54.8,29.90,SSW,199,3.0,0.0,67,0.00,,,0.30,VWS V14.01,2013-04-28 17:50:00,
2013-04-28 13:53:00,66.3,55.4,29.90,SW,225,3.0,0.0,68,0.00,,,0.30,VWS V14.01,2013-04-28 17:53:00,
2013-04-28 13:59:00,66.1,54.8,29.90,SSE,157,3.0,0.0,67,0.00,,,0.30,VWS V14.01,2013-04-28 17:59:00,
2013-04-28 14:00:00,66.1,54.8,29.89,South,188,2.0,0.0,67,0.00,,,0.30,VWS V14.01,2013-04-28 18:00:00,
2013-04-28 14:04:00,65.5,55.5,29.91,South,182,2.0,0.0,70,0.00,,,0.30,VWS V14.01,2013-04-28 18:04:00,
2013-04-28 14:09:00,65.3,55.3,29.91,SSW,192,3.0,0.0,70,0.00,,,0.30,VWS V14.01,2013-04-28 18:09:00,
2013-04-28 14:10:00,66.6,54.5,29.89,South,169,5.0,0.0,65,0.00,,,0.30,VWS V14.01,2013-04-28 18:10:00,
2013-04-28 14:14:00,66.9,54.3,29.89,SSE,161,0.0,0.0,64,0.00,,,0.30,VWS V14.01,2013-04-28 18:14:00,
2013-04-28 14:19:00,67.3,54.3,29.89,SSE,164,3.0,0.0,63,0.00,,,0.30,VWS V14.01,2013-04-28 18:19:00,
2013-04-28 14:20:00,67.3,54.3,29.89,SSE,161,3.0,0.0,63,0.00,,,0.30,VWS V14.01,2013-04-28 18:20:00,
2013-04-28 14:24:00,67.3,54.7,29.89,South,174,2.0,0.0,64,0.00,,,0.30,VWS V14.01,2013-04-28 18:24:00,
2013-04-28 14:26:00,65.6,55.2,29.91,SW,215,3.0,0.0,69,0.00,,,0.30,VWS V14.01,2013-04-28 18:26:00,
2013-04-28 14:29:00,67.1,56.2,29.89,SSE,159,4.0,0.0,68,0.00,,,0.30,VWS V14.01,2013-04-28 18:29:00,
2013-04-28 14:30:00,66.8,55.9,29.89,South,177,0.0,0.0,68,0.00,,,0.30,VWS V14.01,2013-04-28 18:30:00,
2013-04-28 14:34:00,65.8,56.5,29.89,SSE,159,2.0,0.0,72,0.00,,,0.30,VWS V14.01,2013-04-28 18:34:00,
2013-04-28 14:36:00,66.0,55.2,29.90,South,178,6.0,0.0,68,0.00,,,0.30,VWS V14.01,2013-04-28 18:36:00,
2013-04-28 14:39:00,65.0,55.8,29.89,SSW,196,4.0,0.0,72,0.00,,,0.30,VWS V14.01,2013-04-28 18:39:00,
2013-04-28 14:40:00,65.0,55.4,29.89,South,172,3.0,0.0,71,0.00,,,0.30,VWS V14.01,2013-04-28 18:40:00,
2013-04-28 14:44:00,64.8,55.6,29.88,SSE,160,2.0,0.0,72,0.00,,,0.30,VWS V14.01,2013-04-28 18:44:00,
2013-04-28 14:49:00,64.8,55.6,29.88,South,172,1.0,0.0,72,0.00,,,0.30,VWS V14.01,2013-04-28 18:49:00,
2013-04-28 14:50:00,64.7,55.9,29.88,SE,132,5.0,0.0,73,0.00,,,0.30,VWS V14.01,2013-04-28 18:50:00,
2013-04-28 14:54:00,64.5,55.7,29.88,South,173,2.0,0.0,73,0.00,,,0.30,VWS V14.01,2013-04-28 18:54:00,
2013-04-28 14:59:00,64.5,55.3,29.87,South,171,4.0,0.0,72,0.00,,,0.30,VWS V14.01,2013-04-28 18:59:00,
2013-04-28 15:00:00,64.5,55.3,29.87,SSW,200,3.0,0.0,72,0.00,,,0.30,VWS V14.01,2013-04-28 19:00:00,
2013-04-28 15:04:00,64.3,55.5,29.87,SSE,163,0.0,0.0,73,0.00,,,0.30,VWS V14.01,2013-04-28 19:04:00,
2013-04-28 15:09:00,64.7,55.9,29.87,South,186,2.0,0.0,73,0.00,,,0.30,VWS V14.01,2013-04-28 19:09:00,
2013-04-28 15:10:00,64.7,55.9,29.87,SSE,159,3.0,0.0,73,0.00,,,0.30,VWS V14.01,2013-04-28 19:10:00,
2013-04-28 15:14:00,64.8,55.2,29.87,SSW,196,1.0,0.0,71,0.00,,,0.30,VWS V14.01,2013-04-28 19:14:00,
2013-04-28 15:19:00,64.8,55.2,29.87,South,181,2.0,0.0,71,0.00,,,0.30,VWS V14.01,2013-04-28 19:19:00,
2013-04-28 15:20:00,64.8,55.2,29.87,SE,143,3.0,0.0,71,0.00,,,0.30,VWS V14.01,2013-04-28 19:20:00,
2013-04-28 15:24:00,64.5,55.3,29.87,South,187,0.0,0.0,72,0.00,,,0.30,VWS V14.01,2013-04-28 19:24:00,
2013-04-28 15:29:00,64.0,55.6,29.87,SW,217,3.0,0.0,74,0.00,,,0.30,VWS V14.01,2013-04-28 19:29:00,
2013-04-28 15:30:00,63.9,55.8,29.87,SSW,211,3.0,0.0,75,0.00,,,0.30,VWS V14.01,2013-04-28 19:30:00,
2013-04-28 15:34:00,63.5,55.8,29.87,South,191,3.0,0.0,76,0.00,,,0.30,VWS V14.01,2013-04-28 19:34:00,
2013-04-28 15:39:00,63.5,56.9,29.87,SSE,155,5.0,0.0,79,0.00,,,0.30,VWS V14.01,2013-04-28 19:39:00,
2013-04-28 15:40:00,63.5,56.5,29.87,South,189,2.0,0.0,78,0.00,,,0.30,VWS V14.01,2013-04-28 19:40:00,
2013-04-28 15:44:00,63.7,57.1,29.87,South,189,0.0,0.0,79,0.00,,,0.30,VWS V14.01,2013-04-28 19:44:00,
2013-04-28 15:49:00,63.5,55.8,29.87,SSE,160,0.0,0.0,76,0.00,,,0.30,VWS V14.01,2013-04-28 19:49:00,
2013-04-28 15:50:00,63.5,55.8,29.87,SSE,160,0.0,0.0,76,0.00,,,0.30,VWS V14.01,2013-04-28 19:50:00,
2013-04-28 15:54:00,63.5,55.8,29.87,South,188,2.0,0.0,76,0.00,,,0.30,VWS V14.01,2013-04-28 19:54:00,
2013-04-28 15:59:00,63.7,56.0,29.86,South,186,2.0,0.0,76,0.00,,,0.30,VWS V14.01,2013-04-28 19:59:00,
2013-04-28 16:00:00,63.7,55.6,29.86,South,188,2.0,0.0,75,0.00,,,0.30,VWS V14.01,2013-04-28 20:00:00,
2013-04-28 16:04:00,63.9,55.1,29.86,SSW,197,2.0,0.0,73,0.00,,,0.30,VWS V14.01,2013-04-28 20:04:00,
2013-04-28 16:09:00,64.0,55.2,29.86,South,188,4.0,0.0,73,0.00,,,0.30,VWS V14.01,2013-04-28 20:09:00,
2013-04-28 16:10:00,64.0,55.6,29.86,South,181,0.0,0.0,74,0.00,,,0.30,VWS V14.01,2013-04-28 20:10:00,
2013-04-28 16:14:00,64.0,54.8,29.87,SW,219,4.0,0.0,72,0.00,,,0.30,VWS V14.01,2013-04-28 20:14:00,
2013-04-28 16:19:00,64.0,54.8,29.87,South,191,9.0,0.0,72,0.00,,,0.30,VWS V14.01,2013-04-28 20:19:00,
2013-04-28 16:20:00,64.0,54.4,29.87,SSW,195,3.0,0.0,71,0.00,,,0.30,VWS V14.01,2013-04-28 20:20:00,
2013-04-28 16:24:00,64.2,54.6,29.87,SSW,193,7.0,0.0,71,0.00,,,0.30,VWS V14.01,2013-04-28 20:24:00,
2013-04-28 16:29:00,64.3,55.1,29.87,SSE,168,2.0,0.0,72,0.00,,,0.30,VWS V14.01,2013-04-28 20:29:00,
2013-04-28 16:30:00,64.3,55.1,29.87,South,182,2.0,0.0,72,0.00,,,0.30,VWS V14.01,2013-04-28 20:30:00,
2013-04-28 16:34:00,64.3,55.1,29.87,SW,217,2.0,0.0,72,0.00,,,0.30,VWS V14.01,2013-04-28 20:34:00,
2013-04-28 16:39:00,63.5,55.8,29.87,SSW,200,5.0,0.0,76,0.00,,,0.30,VWS V14.01,2013-04-28 20:39:00,
2013-04-28 16:40:00,63.5,56.2,29.87,SW,221,3.0,0.0,77,0.00,,,0.30,VWS V14.01,2013-04-28 20:40:00,
2013-04-28 16:44:00,62.7,56.1,29.88,SSW,202,0.0,0.0,79,0.00,,,0.30,VWS V14.01,2013-04-28 20:44:00,
2013-04-28 16:49:00,62.1,56.2,29.88,South,184,0.0,0.0,81,0.00,,,0.30,VWS V14.01,2013-04-28 20:49:00,
2013-04-28 16:50:00,62.0,56.5,29.88,South,184,2.0,0.0,82,0.00,,,0.30,VWS V14.01,2013-04-28 20:50:00,
2013-04-28 16:54:00,61.8,56.6,29.88,SSW,193,0.0,0.0,83,0.00,,,0.30,VWS V14.01,2013-04-28 20:54:00,
2013-04-28 16:59:00,61.6,56.7,29.88,SSW,200,0.0,0.0,84,0.00,,,0.30,VWS V14.01,2013-04-28 20:59:00,
2013-04-28 17:00:00,61.6,56.7,29.88,SSW,200,0.0,0.0,84,0.00,,,0.30,VWS V14.01,2013-04-28 21:00:00,
2013-04-28 17:04:00,61.5,57.0,29.88,SSW,200,0.0,0.0,85,0.00,,,0.30,VWS V14.01,2013-04-28 21:04:00,
2013-04-28 17:09:00,61.3,56.8,29.88,SW,223,3.0,0.0,85,0.00,,,0.30,VWS V14.01,2013-04-28 21:09:00,
2013-04-28 17:10:00,61.3,56.8,29.88,SW,221,3.0,0.0,85,0.00,,,0.30,VWS V14.01,2013-04-28 21:10:00,
2013-04-28 17:14:00,61.2,56.7,29.89,WSW,249,3.0,0.0,85,0.00,,,0.30,VWS V14.01,2013-04-28 21:14:00,
2013-04-28 17:19:00,61.2,57.0,29.89,SW,223,0.0,0.0,86,0.00,,,0.30,VWS V14.01,2013-04-28 21:19:00,
2013-04-28 17:20:00,61.0,56.8,29.89,SW,223,0.0,0.0,86,0.00,,,0.30,VWS V14.01,2013-04-28 21:20:00,
2013-04-28 17:24:00,61.0,56.8,29.89,SW,223,0.0,0.0,86,0.00,,,0.30,VWS V14.01,2013-04-28 21:24:00,
2013-04-28 17:29:00,60.9,57.0,29.89,SW,223,0.0,0.0,87,0.00,,,0.30,VWS V14.01,2013-04-28 21:29:00,
2013-04-28 17:30:00,60.9,57.0,29.89,SW,223,2.0,0.0,87,0.00,,,0.30,VWS V14.01,2013-04-28 21:30:00,
2013-04-28 17:34:00,60.5,56.9,29.89,SW,223,0.0,0.0,88,0.00,,,0.30,VWS V14.01,2013-04-28 21:34:00,
2013-04-28 17:39:00,60.4,57.2,29.89,SW,223,0.0,0.0,89,0.00,,,0.30,VWS V14.01,2013-04-28 21:39:00,
2013-04-28 17:40:00,60.4,57.2,29.89,SW,223,0.0,0.0,89,0.00,,,0.30,VWS V14.01,2013-04-28 21:40:00,
2013-04-28 17:44:00,60.4,57.2,29.89,SW,223,3.0,0.0,89,0.00,,,0.30,VWS V14.01,2013-04-28 21:44:00,
2013-04-28 17:49:00,60.2,57.0,29.89,SW,222,2.0,0.0,89,0.00,,,0.30,VWS V14.01,2013-04-28 21:49:00,
2013-04-28 17:50:00,60.2,57.0,29.89,SW,222,0.0,0.0,89,0.00,,,0.30,VWS V14.01,2013-04-28 21:50:00,
2013-04-28 17:54:00,60.2,57.3,29.89,SSW,198,0.0,0.0,90,0.00,,,0.30,VWS V14.01,2013-04-28 21:54:00,
2013-04-28 17:59:00,59.8,56.6,29.90,SW,215,0.0,0.0,89,0.00,,,0.30,VWS V14.01,2013-04-28 21:59:00,
2013-04-28 18:00:00,59.8,56.6,29.90,SW,215,0.0,0.0,89,0.00,,,0.30,VWS V14.01,2013-04-28 22:00:00,
2013-04-28 18:04:00,59.8,56.9,29.90,SW,214,0.0,0.0,90,0.00,,,0.30,VWS V14.01,2013-04-28 22:04:00,
2013-04-28 18:09:00,59.6,56.7,29.90,SW,215,0.0,0.0,90,0.00,,,0.30,VWS V14.01,2013-04-28 22:09:00,
2013-04-28 18:10:00,59.6,56.7,29.90,SW,215,0.0,0.0,90,0.00,,,0.30,VWS V14.01,2013-04-28 22:10:00,
2013-04-28 18:14:00,59.5,56.6,29.89,SW,215,0.0,0.0,90,0.00,,,0.30,VWS V14.01,2013-04-28 22:14:00,
2013-04-28 18:19:00,59.2,56.3,29.89,SW,215,0.0,0.0,90,0.00,,,0.30,VWS V14.01,2013-04-28 22:19:00,
2013-04-28 18:20:00,59.2,56.3,29.89,SW,215,0.0,0.0,90,0.00,,,0.30,VWS V14.01,2013-04-28 22:20:00,
2013-04-28 18:24:00,59.0,55.8,29.89,SW,215,0.0,0.0,89,0.00,,,0.30,VWS V14.01,2013-04-28 22:24:00,
2013-04-28 18:29:00,58.9,55.7,29.89,SW,215,0.0,0.0,89,0.00,,,0.30,VWS V14.01,2013-04-28 22:29:00,
2013-04-28 18:30:00,58.9,55.7,29.89,SW,215,0.0,0.0,89,0.00,,,0.30,VWS V14.01,2013-04-28 22:30:00,
2013-04-28 18:34:00,58.7,55.5,29.89,SW,215,0.0,0.0,89,0.00,,,0.30,VWS V14.01,2013-04-28 22:34:00,
2013-04-28 18:39:00,58.7,55.5,29.89,SW,215,0.0,0.0,89,0.00,,,0.30,VWS V14.01,2013-04-28 22:39:00,
2013-04-28 18:40:00,58.7,55.5,29.89,SW,215,0.0,0.0,89,0.00,,,0.30,VWS V14.01,2013-04-28 22:40:00,
2013-04-28 18:44:00,58.6,55.4,29.89,SW,215,0.0,0.0,89,0.00,,,0.30,VWS V14.01,2013-04-28 22:44:00,
2013-04-28 18:49:00,58.6,55.4,29.89,SW,215,0.0,0.0,89,0.00,,,0.30,VWS V14.01,2013-04-28 22:49:00,
2013-04-28 18:50:00,58.6,55.4,29.89,SW,215,0.0,0.0,89,0.00,,,0.30,VWS V14.01,2013-04-28 22:50:00,
2013-04-28 18:55:00,58.4,55.2,29.89,SW,215,0.0,0.0,89,0.00,,,0.30,VWS V14.01,2013-04-28 22:55:00,
2013-04-28 19:00:00,58.3,55.1,29.89,SW,215,0.0,0.0,89,0.00,,,0.30,VWS V14.01,2013-04-28 23:00:00,
2013-04-28 19:05:00,58.3,54.8,29.89,SW,215,0.0,0.0,88,0.00,,,0.30,VWS V14.01,2013-04-28 23:05:00,
2013-04-28 19:10:00,58.3,54.8,29.89,SW,215,0.0,0.0,88,0.00,,,0.30,VWS V14.01,2013-04-28 23:10:00,
2013-04-28 19:15:00,58.3,54.8,29.90,SW,215,0.0,0.0,88,0.00,,,0.30,VWS V14.01,2013-04-28 23:15:00,
2013-04-28 19:20:00,58.1,54.6,29.90,SW,215,0.0,0.0,88,0.00,,,0.30,VWS V14.01,2013-04-28 23:20:00,
2013-04-28 19:25:00,58.1,54.6,29.90,SW,215,0.0,0.0,88,0.00,,,0.30,VWS V14.01,2013-04-28 23:25:00,
2013-04-28 19:30:00,58.1,54.6,29.91,SW,215,0.0,0.0,88,0.00,,,0.30,VWS V14.01,2013-04-28 23:30:00,
2013-04-28 19:35:00,58.1,54.3,29.91,SW,215,0.0,0.0,87,0.00,,,0.30,VWS V14.01,2013-04-28 23:35:00,
2013-04-28 19:40:00,58.0,54.2,29.91,SW,215,0.0,0.0,87,0.00,,,0.30,VWS V14.01,2013-04-28 23:40:00,
2013-04-28 19:45:00,57.8,53.7,29.92,SW,215,0.0,0.0,86,0.00,,,0.30,VWS V14.01,2013-04-28 23:45:00,
2013-04-28 19:50:00,57.8,53.7,29.92,SW,215,2.0,0.0,86,0.00,,,0.30,VWS V14.01,2013-04-28 23:50:00,
2013-04-28 19:55:00,57.6,53.1,29.92,SW,215,0.0,0.0,85,0.00,,,0.30,VWS V14.01,2013-04-28 23:55:00,
2013-04-28 20:00:00,57.6,53.1,29.92,SW,215,0.0,0.0,85,0.00,,,0.30,VWS V14.01,2013-04-29 00:00:00,
2013-04-28 20:05:00,57.6,53.1,29.92,SW,215,0.0,0.0,85,0.00,,,0.30,VWS V14.01,2013-04-29 00:05:00,
2013-04-28 20:10:00,57.6,53.1,29.92,SW,215,0.0,0.0,85,0.00,,,0.30,VWS V14.01,2013-04-29 00:10:00,
2013-04-28 20:20:00,57.5,52.7,29.93,SW,215,0.0,0.0,84,0.00,,,0.30,VWS V14.01,2013-04-29 00:20:00,
2013-04-28 20:25:00,57.3,52.5,29.93,SW,215,0.0,0.0,84,0.00,,,0.30,VWS V14.01,2013-04-29 00:25:00,
2013-04-28 20:30:00,57.3,52.5,29.93,SW,215,0.0,0.0,84,0.00,,,0.30,VWS V14.01,2013-04-29 00:30:00,
2013-04-28 20:35:00,57.3,52.5,29.93,SW,215,0.0,0.0,84,0.00,,,0.30,VWS V14.01,2013-04-29 00:35:00,
2013-04-28 20:40:00,57.2,52.4,29.93,SW,215,0.0,0.0,84,0.00,,,0.30,VWS V14.01,2013-04-29 00:40:00,
2013-04-28 20:46:00,58.0,54.2,29.91,SW,215,0.0,0.0,87,0.00,,,0.30,VWS V14.01,2013-04-29 00:46:00,
2013-04-28 20:50:00,56.7,51.9,29.93,SW,215,0.0,0.0,84,0.00,,,0.30,VWS V14.01,2013-04-29 00:50:00,
2013-04-28 20:55:00,56.7,51.9,29.93,SW,215,0.0,0.0,84,0.00,,,0.30,VWS V14.01,2013-04-29 00:55:00,
2013-04-28 21:00:00,56.6,52.2,29.94,SW,215,0.0,0.0,85,0.00,,,0.30,VWS V14.01,2013-04-29 01:00:00,
2013-04-28 21:05:00,56.6,52.2,29.94,SW,215,0.0,0.0,85,0.00,,,0.30,VWS V14.01,2013-04-29 01:05:00,
2013-04-28 21:06:00,57.6,53.1,29.92,SW,215,0.0,0.0,85,0.00,,,0.30,VWS V14.01,2013-04-29 01:06:00,
2013-04-28 21:10:00,56.5,52.0,29.94,SW,215,0.0,0.0,85,0.00,,,0.30,VWS V14.01,2013-04-29 01:10:00,
2013-04-28 21:15:00,56.5,52.0,29.94,SW,215,0.0,0.0,85,0.00,,,0.30,VWS V14.01,2013-04-29 01:15:00,
2013-04-28 21:20:00,56.3,51.9,29.94,SW,215,0.0,0.0,85,0.00,,,0.30,VWS V14.01,2013-04-29 01:20:00,
2013-04-28 21:21:00,57.6,53.1,29.93,SW,215,0.0,0.0,85,0.00,,,0.30,VWS V14.01,2013-04-29 01:21:00,
2013-04-28 21:25:00,56.3,51.9,29.94,SW,215,0.0,0.0,85,0.00,,,0.30,VWS V14.01,2013-04-29 01:25:00,
2013-04-28 21:30:00,56.2,51.8,29.95,SW,215,0.0,0.0,85,0.00,,,0.30,VWS V14.01,2013-04-29 01:30:00,
2013-04-28 21:35:00,56.0,51.6,29.95,SW,215,0.0,0.0,85,0.00,,,0.30,VWS V14.01,2013-04-29 01:35:00,
2013-04-28 21:40:00,55.9,51.5,29.95,SW,215,0.0,0.0,85,0.00,,,0.30,VWS V14.01,2013-04-29 01:40:00,
2013-04-28 21:45:00,55.7,51.6,29.94,SW,215,0.0,0.0,86,0.00,,,0.30,VWS V14.01,2013-04-29 01:45:00,
2013-04-28 21:46:00,57.2,52.4,29.93,SW,215,0.0,0.0,84,0.00,,,0.30,VWS V14.01,2013-04-29 01:46:00,
2013-04-28 21:50:00,55.7,51.6,29.94,SW,215,0.0,0.0,86,0.00,,,0.30,VWS V14.01,2013-04-29 01:50:00,
2013-04-28 21:51:00,56.9,52.1,29.93,SW,215,0.0,0.0,84,0.00,,,0.30,VWS V14.01,2013-04-29 01:51:00,
2013-04-28 21:55:00,55.6,51.5,29.94,SW,215,0.0,0.0,86,0.00,,,0.30,VWS V14.01,2013-04-29 01:55:00,
2013-04-28 22:00:00,55.4,51.3,29.94,SW,215,0.0,0.0,86,0.00,,,0.30,VWS V14.01,2013-04-29 02:00:00,
2013-04-28 22:10:00,55.1,51.3,29.94,SW,215,0.0,0.0,87,0.00,,,0.30,VWS V14.01,2013-04-29 02:10:00,
2013-04-28 22:16:00,56.5,52.0,29.94,SW,215,0.0,0.0,85,0.00,,,0.30,VWS V14.01,2013-04-29 02:16:00,
2013-04-28 22:20:00,54.8,51.0,29.95,SW,215,0.0,0.0,87,0.00,,,0.30,VWS V14.01,2013-04-29 02:20:00,
2013-04-28 22:25:00,54.7,51.2,29.95,SW,215,0.0,0.0,88,0.00,,,0.30,VWS V14.01,2013-04-29 02:25:00,
2013-04-28 22:30:00,54.5,51.0,29.95,SW,215,0.0,0.0,88,0.00,,,0.30,VWS V14.01,2013-04-29 02:30:00,
2013-04-28 22:36:00,56.2,51.8,29.95,SW,215,0.0,0.0,85,0.00,,,0.30,VWS V14.01,2013-04-29 02:36:00,
2013-04-28 22:40:00,54.2,50.7,29.95,SW,215,0.0,0.0,88,0.00,,,0.30,VWS V14.01,2013-04-29 02:40:00,
2013-04-28 22:45:00,54.2,50.7,29.95,SW,215,0.0,0.0,88,0.00,,,0.30,VWS V14.01,2013-04-29 02:45:00,
2013-04-28 22:46:00,55.9,51.5,29.95,SW,215,0.0,0.0,85,0.00,,,0.30,VWS V14.01,2013-04-29 02:46:00,
2013-04-28 22:50:00,54.1,50.6,29.95,SW,215,0.0,0.0,88,0.00,,,0.30,VWS V14.01,2013-04-29 02:50:00,
2013-04-28 22:55:00,53.8,50.3,29.95,SW,215,0.0,0.0,88,0.00,,,0.30,VWS V14.01,2013-04-29 02:55:00,
2013-04-28 22:56:00,55.7,51.6,29.94,SW,215,0.0,0.0,86,0.00,,,0.30,VWS V14.01,2013-04-29 02:56:00,
2013-04-28 23:00:00,53.6,50.4,29.95,SW,215,0.0,0.0,89,0.00,,,0.00,VWS V14.01,2013-04-29 03:00:00,
2013-04-28 23:01:00,53.6,50.4,29.95,SW,215,0.0,0.0,89,0.00,,,0.00,VWS V14.01,2013-04-29 03:01:00,
2013-04-28 23:06:00,53.5,50.3,29.95,SW,215,0.0,0.0,89,0.00,,,0.00,VWS V14.01,2013-04-29 03:06:00,
2013-04-28 23:10:00,53.5,50.3,29.95,SW,215,0.0,0.0,89,0.00,,,0.00,VWS V14.01,2013-04-29 03:10:00,
2013-04-28 23:11:00,55.3,51.2,29.94,SW,215,0.0,0.0,86,0.00,,,0.30,VWS V14.01,2013-04-29 03:11:00,
2013-04-28 23:16:00,53.2,50.0,29.95,SW,215,0.0,0.0,89,0.00,,,0.00,VWS V14.01,2013-04-29 03:16:00,
2013-04-28 23:20:00,52.9,49.8,29.95,SW,215,0.0,0.0,89,0.00,,,0.00,VWS V14.01,2013-04-29 03:20:00,
2013-04-28 23:21:00,55.0,51.2,29.95,SW,215,0.0,0.0,87,0.00,,,0.30,VWS V14.01,2013-04-29 03:21:00,
2013-04-28 23:26:00,52.6,49.5,29.95,SW,215,0.0,0.0,89,0.00,,,0.00,VWS V14.01,2013-04-29 03:26:00,
2013-04-28 23:30:00,52.6,49.5,29.95,SW,215,0.0,0.0,89,0.00,,,0.00,VWS V14.01,2013-04-29 03:30:00,
2013-04-28 23:31:00,52.6,49.8,29.95,SW,215,0.0,0.0,90,0.00,,,0.00,VWS V14.01,2013-04-29 03:31:00,
2013-04-28 23:36:00,54.5,51.0,29.95,SW,215,0.0,0.0,88,0.00,,,0.30,VWS V14.01,2013-04-29 03:36:00,
2013-04-28 23:40:00,52.5,49.7,29.95,SW,215,0.0,0.0,90,0.00,,,0.00,VWS V14.01,2013-04-29 03:40:00,
2013-04-28 23:41:00,54.4,50.9,29.95,SW,215,0.0,0.0,88,0.00,,,0.30,VWS V14.01,2013-04-29 03:41:00,
2013-04-28 23:46:00,54.2,50.7,29.95,SW,215,0.0,0.0,88,0.00,,,0.30,VWS V14.01,2013-04-29 03:46:00,
2013-04-28 23:50:00,52.2,49.4,29.95,SW,215,0.0,0.0,90,0.00,,,0.00,VWS V14.01,2013-04-29 03:50:00,
2013-04-28 23:51:00,52.2,49.4,29.95,SW,215,0.0,0.0,90,0.00,,,0.00,VWS V14.01,2013-04-29 03:51:00,
2013-04-28 23:56:00,54.1,50.6,29.95,SW,215,0.0,0.0,88,0.00,,,0.30,VWS V14.01,2013-04-29 03:56:00,